Terminal Aerodrome Forecast
Issued by NWS

Home | Current Version | Previous Version | Text Only | Print | Product List | Glossary On
Versions: 1 2 3 4 5 6 7 8 9 10 11 12 13 14 15 16 17
673
FTUS46 KSTO 101735
TAFSCK
TAF
KSCK 101735Z 1018/1118 VRB03KT 3SM BR BKN250
     FM101900 32004KT 6SM HZ BKN250
     FM102000 32006KT P6SM BKN250
     FM110500 VRB03KT 5SM BR BKN250
      TEMPO 1113/1117 1/4SM FG OVC001=

USA.gov is the U.S. government's official web portal to all federal, state and local government web resources and services.